sensor_id;sensor_type;location;lat;lon;timestamp;pressure;altitude;pressure_sealevel;temperature;humidity
15066;BME280;7632;64.944;20.038;2024-02-16T04:45:18;99525.69;;;-5.82;100.00
15066;BME280;7632;64.944;20.038;2024-02-16T04:47:45;99516.31;;;-5.86;100.00
15066;BME280;7632;64.944;20.038;2024-02-16T04:50:12;99524.03;;;-5.81;100.00
15066;BME280;7632;64.944;20.038;2024-02-16T04:52:39;99515.44;;;-5.86;100.00
15066;BME280;7632;64.944;20.038;2024-02-16T04:55:07;99515.63;;;-5.83;100.00
15066;BME280;7632;64.944;20.038;2024-02-16T04:57:34;99501.88;;;-5.75;100.00
15066;BME280;7632;64.944;20.038;2024-02-16T05:00:01;99492.38;;;-5.66;100.00
15066;BME280;7632;64.944;20.038;2024-02-16T05:02:29;99505.38;;;-5.57;100.00
15066;BME280;7632;64.944;20.038;2024-02-16T05:04:56;99509.06;;;-5.51;100.00
15066;BME280;7632;64.944;20.038;2024-02-16T05:07:23;99498.28;;;-5.50;100.00
15066;BME280;7632;64.944;20.038;2024-02-16T05:09:50;99502.22;;;-5.39;100.00
15066;BME280;7632;64.944;20.038;2024-02-16T05:12:21;99496.72;;;-5.33;100.00
15066;BME280;7632;64.944;20.038;2024-02-16T05:14:49;99501.38;;;-5.39;100.00
15066;BME280;7632;64.944;20.038;2024-02-16T05:17:16;99504.56;;;-5.42;100.00
15066;BME280;7632;64.944;20.038;2024-02-16T05:19:44;99506.06;;;-5.45;100.00
15066;BME280;7632;64.944;20.038;2024-02-16T05:22:11;99508.44;;;-5.47;100.00
15066;BME280;7632;64.944;20.038;2024-02-16T05:24:38;99493.41;;;-5.32;100.00
15066;BME280;7632;64.944;20.038;2024-02-16T05:27:05;99490.56;;;-5.38;100.00
15066;BME280;7632;64.944;20.038;2024-02-16T05:29:31;99492.94;;;-5.41;100.00
15066;BME280;7632;64.944;20.038;2024-02-16T05:31:58;99477.59;;;-5.47;100.00
15066;BME280;7632;64.944;20.038;2024-02-16T05:34:25;99488.69;;;-5.42;100.00
15066;BME280;7632;64.944;20.038;2024-02-16T05:36:53;99493.91;;;-5.23;100.00
15066;BME280;7632;64.944;20.038;2024-02-16T05:39:20;99498.38;;;-5.17;100.00
15066;BME280;7632;64.944;20.038;2024-02-16T05:41:52;99493.19;;;-5.21;100.00
15066;BME280;7632;64.944;20.038;2024-02-16T05:44:19;99478.75;;;-5.41;100.00
15066;BME280;7632;64.944;20.038;2024-02-16T05:46:46;99494.38;;;-5.14;100.00
15066;BME280;7632;64.944;20.038;2024-02-16T05:49:13;99490.78;;;-5.19;100.00
15066;BME280;7632;64.944;20.038;2024-02-16T05:51:41;99486.72;;;-5.17;100.00
15066;BME280;7632;64.944;20.038;2024-02-16T05:54:26;99487.16;;;-5.24;100.00
15066;BME280;7632;64.944;20.038;2024-02-16T05:56:53;99480.13;;;-5.31;100.00
15066;BME280;7632;64.944;20.038;2024-02-16T05:59:20;99466.69;;;-5.33;100.00
15066;BME280;7632;64.944;20.038;2024-02-16T06:01:47;99484.03;;;-5.20;100.00
15066;BME280;7632;64.944;20.038;2024-02-16T06:04:14;99479.94;;;-5.03;100.00
15066;BME280;7632;64.944;20.038;2024-02-16T06:06:41;99491.72;;;-5.01;100.00
15066;BME280;7632;64.944;20.038;2024-02-16T06:09:08;99484.00;;;-5.05;100.00
15066;BME280;7632;64.944;20.038;2024-02-16T06:11:37;99470.59;;;-5.06;100.00
15066;BME280;7632;64.944;20.038;2024-02-16T06:14:05;99476.88;;;-4.98;100.00
15066;BME280;7632;64.944;20.038;2024-02-16T06:16:31;99470.28;;;-5.12;100.00
15066;BME280;7632;64.944;20.038;2024-02-16T06:18:59;99468.25;;;-5.03;100.00
15066;BME280;7632;64.944;20.038;2024-02-16T06:21:26;99457.91;;;-5.09;100.00
15066;BME280;7632;64.944;20.038;2024-02-16T06:23:53;99444.69;;;-5.23;100.00
15066;BME280;7632;64.944;20.038;2024-02-16T06:26:19;99457.00;;;-4.95;100.00
15066;BME280;7632;64.944;20.038;2024-02-16T06:28:48;99462.16;;;-4.92;100.00
15066;BME280;7632;64.944;20.038;2024-02-16T06:31:15;99454.09;;;-5.02;100.00
15066;BME280;7632;64.944;20.038;2024-02-16T06:33:42;99441.28;;;-4.92;100.00
15066;BME280;7632;64.944;20.038;2024-02-16T06:36:09;99442.22;;;-4.90;100.00
15066;BME280;7632;64.944;20.038;2024-02-16T06:38:36;99437.50;;;-5.00;100.00
15066;BME280;7632;64.944;20.038;2024-02-16T06:41:03;99436.34;;;-5.07;100.00
15066;BME280;7632;64.944;20.038;2024-02-16T06:43:30;99429.31;;;-4.98;100.00
15066;BME280;7632;64.944;20.038;2024-02-16T06:45:58;99436.25;;;-4.92;100.00
15066;BME280;7632;64.944;20.038;2024-02-16T06:48:25;99437.38;;;-5.03;100.00
15066;BME280;7632;64.944;20.038;2024-02-16T06:50:52;99436.81;;;-4.98;100.00
15066;BME280;7632;64.944;20.038;2024-02-16T06:53:19;99427.34;;;-5.03;100.00
15066;BME280;7632;64.944;20.038;2024-02-16T06:55:46;99423.97;;;-5.04;100.00
15066;BME280;7632;64.944;20.038;2024-02-16T06:58:13;99421.88;;;-5.12;100.00
15066;BME280;7632;64.944;20.038;2024-02-16T07:00:40;99430.88;;;-4.84;100.00
15066;BME280;7632;64.944;20.038;2024-02-16T07:03:09;99434.44;;;-4.79;100.00
15066;BME280;7632;64.944;20.038;2024-02-16T07:05:36;99425.53;;;-4.74;100.00
15066;BME280;7632;64.944;20.038;2024-02-16T07:08:03;99429.75;;;-4.73;100.00
15066;BME280;7632;64.944;20.038;2024-02-16T07:10:31;99428.81;;;-4.75;100.00
15066;BME280;7632;64.944;20.038;2024-02-16T07:12:58;99418.97;;;-4.88;100.00
15066;BME280;7632;64.944;20.038;2024-02-16T07:15:25;99418.97;;;-4.88;100.00
15066;BME280;7632;64.944;20.038;2024-02-16T07:17:52;99429.69;;;-4.90;100.00
15066;BME280;7632;64.944;20.038;2024-02-16T07:20:21;99410.03;;;-4.99;100.00
15066;BME280;7632;64.944;20.038;2024-02-16T07:22:47;99437.44;;;-4.86;100.00
15066;BME280;7632;64.944;20.038;2024-02-16T07:25:17;99431.16;;;-4.62;100.00
15066;BME280;7632;64.944;20.038;2024-02-16T07:27:43;99428.66;;;-4.62;100.00
15066;BME280;7632;64.944;20.038;2024-02-16T07:30:11;99422.47;;;-4.68;100.00
15066;BME280;7632;64.944;20.038;2024-02-16T07:32:38;99409.88;;;-4.70;100.00
15066;BME280;7632;64.944;20.038;2024-02-16T07:35:06;99413.09;;;-4.72;100.00
15066;BME280;7632;64.944;20.038;2024-02-16T07:37:34;99405.97;;;-4.81;100.00
15066;BME280;7632;64.944;20.038;2024-02-16T07:40:01;99411.28;;;-4.75;100.00
15066;BME280;7632;64.944;20.038;2024-02-16T07:42:29;99395.56;;;-4.88;100.00
15066;BME280;7632;64.944;20.038;2024-02-16T10:45:00;99116.47;;;-2.77;100.00
15066;BME280;7632;64.944;20.038;2024-02-16T10:47:27;99104.94;;;-2.72;100.00
15066;BME280;7632;64.944;20.038;2024-02-16T10:49:55;99104.53;;;-2.61;100.00
15066;BME280;7632;64.944;20.038;2024-02-16T10:52:22;99103.66;;;-2.61;100.00
15066;BME280;7632;64.944;20.038;2024-02-16T10:54:50;99100.88;;;-2.69;100.00
15066;BME280;7632;64.944;20.038;2024-02-16T10:57:17;99087.34;;;-2.50;100.00
15066;BME280;7632;64.944;20.038;2024-02-16T10:59:44;99080.63;;;-2.49;100.00
15066;BME280;7632;64.944;20.038;2024-02-16T11:02:14;99076.19;;;-2.56;100.00
15066;BME280;7632;64.944;20.038;2024-02-16T11:04:45;99074.00;;;-2.47;100.00
15066;BME280;7632;64.944;20.038;2024-02-16T11:07:15;99079.25;;;-2.41;100.00
15066;BME280;7632;64.944;20.038;2024-02-16T11:09:43;99071.47;;;-2.47;100.00
15066;BME280;7632;64.944;20.038;2024-02-16T11:12:13;99071.81;;;-2.38;100.00
15066;BME280;7632;64.944;20.038;2024-02-16T11:14:41;99066.38;;;-2.50;100.00
15066;BME280;7632;64.944;20.038;2024-02-16T11:17:09;99046.34;;;-2.47;100.00
15066;BME280;7632;64.944;20.038;2024-02-16T11:19:40;99027.75;;;-2.52;100.00
15066;BME280;7632;64.944;20.038;2024-02-16T11:22:07;99051.59;;;-2.41;100.00
15066;BME280;7632;64.944;20.038;2024-02-16T11:24:35;99038.06;;;-2.45;100.00
15066;BME280;7632;64.944;20.038;2024-02-16T11:27:02;99037.31;;;-2.42;100.00
15066;BME280;7632;64.944;20.038;2024-02-16T11:29:31;99030.09;;;-2.33;100.00
15066;BME280;7632;64.944;20.038;2024-02-16T11:32:00;99020.03;;;-2.33;100.00
15066;BME280;7632;64.944;20.038;2024-02-16T11:34:27;99021.41;;;-2.41;100.00
15066;BME280;7632;64.944;20.038;2024-02-16T11:36:56;99012.75;;;-2.49;100.00
15066;BME280;7632;64.944;20.038;2024-02-16T11:39:24;99010.19;;;-2.27;100.00
15066;BME280;7632;64.944;20.038;2024-02-16T11:42:02;98998.31;;;-2.31;100.00
15066;BME280;7632;64.944;20.038;2024-02-16T11:44:29;98982.00;;;-2.42;100.00
15066;BME280;7632;64.944;20.038;2024-02-16T11:46:57;98985.66;;;-2.34;100.00
15066;BME280;7632;64.944;20.038;2024-02-16T11:49:24;98982.22;;;-2.36;100.00
15066;BME280;7632;64.944;20.038;2024-02-16T11:51:51;98976.56;;;-2.29;100.00
15066;BME280;7632;64.944;20.038;2024-02-16T11:54:19;98962.09;;;-2.11;100.00
15066;BME280;7632;64.944;20.038;2024-02-16T11:56:47;98956.50;;;-2.03;100.00
15066;BME280;7632;64.944;20.038;2024-02-16T11:59:17;98953.06;;;-2.06;100.00
15066;BME280;7632;64.944;20.038;2024-02-16T12:01:51;98936.38;;;-2.03;100.00
15066;BME280;7632;64.944;20.038;2024-02-16T12:04:20;98941.41;;;-2.03;100.00
15066;BME280;7632;64.944;20.038;2024-02-16T12:06:47;98937.13;;;-2.05;100.00
15066;BME280;7632;64.944;20.038;2024-02-16T12:09:15;98925.97;;;-1.88;100.00
15066;BME280;7632;64.944;20.038;2024-02-16T12:11:44;98921.31;;;-1.76;100.00
15066;BME280;7632;64.944;20.038;2024-02-16T12:14:11;98921.00;;;-1.85;100.00
15066;BME280;7632;64.944;20.038;2024-02-16T12:16:38;98909.13;;;-1.89;100.00
15066;BME280;7632;64.944;20.038;2024-02-16T12:19:05;98909.31;;;-1.83;100.00
15066;BME280;7632;64.944;20.038;2024-02-16T12:21:32;98892.16;;;-1.96;100.00
15066;BME280;7632;64.944;20.038;2024-02-16T12:23:58;98888.25;;;-1.87;100.00
15066;BME280;7632;64.944;20.038;2024-02-16T12:26:25;98887.56;;;-1.81;100.00
15066;BME280;7632;64.944;20.038;2024-02-16T12:28:53;98879.22;;;-1.80;100.00
15066;BME280;7632;64.944;20.038;2024-02-16T12:31:21;98884.25;;;-1.80;100.00
15066;BME280;7632;64.944;20.038;2024-02-16T12:33:48;98878.44;;;-1.78;100.00
15066;BME280;7632;64.944;20.038;2024-02-16T12:36:15;98877.81;;;-1.72;100.00
15066;BME280;7632;64.944;20.038;2024-02-16T12:38:42;98872.59;;;-1.78;100.00
15066;BME280;7632;64.944;20.038;2024-02-16T12:41:10;98860.97;;;-1.73;100.00
15066;BME280;7632;64.944;20.038;2024-02-16T12:43:37;98853.47;;;-1.72;100.00
15066;BME280;7632;64.944;20.038;2024-02-16T12:46:05;98846.72;;;-1.73;100.00
15066;BME280;7632;64.944;20.038;2024-02-16T12:48:32;98836.69;;;-1.71;100.00
15066;BME280;7632;64.944;20.038;2024-02-16T12:50:59;98827.50;;;-1.70;100.00
15066;BME280;7632;64.944;20.038;2024-02-16T12:53:26;98824.13;;;-1.71;100.00
15066;BME280;7632;64.944;20.038;2024-02-16T12:55:55;98812.34;;;-1.72;100.00
15066;BME280;7632;64.944;20.038;2024-02-16T12:58:22;98808.44;;;-1.62;100.00
15066;BME280;7632;64.944;20.038;2024-02-16T13:00:49;98805.94;;;-1.61;100.00
15066;BME280;7632;64.944;20.038;2024-02-16T13:03:17;98802.53;;;-1.63;100.00
15066;BME280;7632;64.944;20.038;2024-02-16T13:05:44;98802.81;;;-1.54;100.00
15066;BME280;7632;64.944;20.038;2024-02-16T13:08:11;98801.00;;;-1.58;100.00
15066;BME280;7632;64.944;20.038;2024-02-16T13:10:38;98794.13;;;-1.63;100.00
15066;BME280;7632;64.944;20.038;2024-02-16T13:13:05;98793.50;;;-1.56;100.00
15066;BME280;7632;64.944;20.038;2024-02-16T13:15:31;98786.50;;;-1.66;100.00
15066;BME280;7632;64.944;20.038;2024-02-16T13:17:59;98782.41;;;-1.63;100.00
15066;BME280;7632;64.944;20.038;2024-02-16T13:20:27;98765.59;;;-1.64;100.00
15066;BME280;7632;64.944;20.038;2024-02-16T13:22:54;98760.56;;;-1.64;100.00
15066;BME280;7632;64.944;20.038;2024-02-16T13:25:21;98749.53;;;-1.67;100.00
15066;BME280;7632;64.944;20.038;2024-02-16T13:27:48;98747.16;;;-1.63;100.00
15066;BME280;7632;64.944;20.038;2024-02-16T13:30:15;98750.56;;;-1.61;100.00
15066;BME280;7632;64.944;20.038;2024-02-16T13:32:42;98748.94;;;-1.59;100.00
15066;BME280;7632;64.944;20.038;2024-02-16T13:35:08;98738.97;;;-1.56;100.00
15066;BME280;7632;64.944;20.038;2024-02-16T13:37:37;98729.78;;;-1.54;100.00
15066;BME280;7632;64.944;20.038;2024-02-16T13:40:04;98720.44;;;-1.58;100.00
15066;BME280;7632;64.944;20.038;2024-02-16T13:42:32;98710.13;;;-1.67;100.00
15066;BME280;7632;64.944;20.038;2024-02-16T13:45:00;98713.50;;;-1.66;100.00
15066;BME280;7632;64.944;20.038;2024-02-16T13:47:26;98691.72;;;-1.66;100.00
15066;BME280;7632;64.944;20.038;2024-02-16T13:49:53;98696.09;;;-1.57;100.00
15066;BME280;7632;64.944;20.038;2024-02-16T13:52:22;98691.88;;;-1.60;100.00
15066;BME280;7632;64.944;20.038;2024-02-16T13:54:51;98686.84;;;-1.60;100.00
15066;BME280;7632;64.944;20.038;2024-02-16T13:57:18;98678.41;;;-1.62;100.00
15066;BME280;7632;64.944;20.038;2024-02-16T13:59:45;98661.34;;;-1.72;100.00
15066;BME280;7632;64.944;20.038;2024-02-16T14:02:12;98670.16;;;-1.55;100.00
15066;BME280;7632;64.944;20.038;2024-02-16T14:04:40;98659.94;;;-1.61;100.00
15066;BME280;7632;64.944;20.038;2024-02-16T14:07:07;98675.78;;;-1.65;100.00
15066;BME280;7632;64.944;20.038;2024-02-16T14:09:35;98661.56;;;-1.63;100.00
15066;BME280;7632;64.944;20.038;2024-02-16T14:12:04;98653.06;;;-1.68;100.00
15066;BME280;7632;64.944;20.038;2024-02-16T14:14:31;98653.13;;;-1.65;100.00
15066;BME280;7632;64.944;20.038;2024-02-16T14:16:58;98646.56;;;-1.60;100.00
15066;BME280;7632;64.944;20.038;2024-02-16T14:19:24;98643.16;;;-1.62;100.00
15066;BME280;7632;64.944;20.038;2024-02-16T14:21:51;98639.66;;;-1.67;100.00
15066;BME280;7632;64.944;20.038;2024-02-16T14:24:18;98647.31;;;-1.62;100.00
15066;BME280;7632;64.944;20.038;2024-02-16T14:26:46;98634.72;;;-1.64;100.00
15066;BME280;7632;64.944;20.038;2024-02-16T14:29:14;98629.59;;;-1.65;100.00
15066;BME280;7632;64.944;20.038;2024-02-16T14:31:42;98631.50;;;-1.57;100.00
15066;BME280;7632;64.944;20.038;2024-02-16T14:34:08;98624.53;;;-1.67;100.00
15066;BME280;7632;64.944;20.038;2024-02-16T14:36:35;98622.06;;;-1.65;100.00
15066;BME280;7632;64.944;20.038;2024-02-16T14:39:02;98624.00;;;-1.55;100.00
15066;BME280;7632;64.944;20.038;2024-02-16T14:41:29;98606.50;;;-1.51;100.00
15066;BME280;7632;64.944;20.038;2024-02-16T14:43:56;98603.03;;;-1.56;100.00
15066;BME280;7632;64.944;20.038;2024-02-16T14:46:27;98606.28;;;-1.60;100.00
15066;BME280;7632;64.944;20.038;2024-02-16T14:48:53;98612.84;;;-1.65;100.00
15066;BME280;7632;64.944;20.038;2024-02-16T14:51:20;98606.22;;;-1.61;100.00
15066;BME280;7632;64.944;20.038;2024-02-16T14:53:47;98589.19;;;-1.72;100.00
15066;BME280;7632;64.944;20.038;2024-02-16T14:56:15;98585.84;;;-1.72;100.00
15066;BME280;7632;64.944;20.038;2024-02-16T14:58:44;98584.22;;;-1.70;100.00
15066;BME280;7632;64.944;20.038;2024-02-16T15:01:11;98582.34;;;-1.77;100.00
15066;BME280;7632;64.944;20.038;2024-02-16T15:03:40;98572.56;;;-1.65;100.00
15066;BME280;7632;64.944;20.038;2024-02-16T15:06:06;98567.19;;;-1.80;100.00
15066;BME280;7632;64.944;20.038;2024-02-16T15:08:33;98562.00;;;-1.86;100.00
15066;BME280;7632;64.944;20.038;2024-02-16T15:11:00;98551.13;;;-1.84;100.00
15066;BME280;7632;64.944;20.038;2024-02-16T15:13:27;98536.84;;;-1.86;100.00
15066;BME280;7632;64.944;20.038;2024-02-16T15:15:56;98536.84;;;-1.86;100.00
15066;BME280;7632;64.944;20.038;2024-02-16T15:18:22;98530.84;;;-1.90;100.00
15066;BME280;7632;64.944;20.038;2024-02-16T15:20:51;98549.31;;;-1.89;100.00
15066;BME280;7632;64.944;20.038;2024-02-16T15:23:17;98543.41;;;-1.91;100.00
15066;BME280;7632;64.944;20.038;2024-02-16T15:25:44;98540.84;;;-1.93;100.00
15066;BME280;7632;64.944;20.038;2024-02-16T15:28:12;98542.47;;;-1.96;100.00
15066;BME280;7632;64.944;20.038;2024-02-16T15:30:39;98536.59;;;-1.95;100.00
15066;BME280;7632;64.944;20.038;2024-02-16T15:33:06;98521.59;;;-1.92;100.00
15066;BME280;7632;64.944;20.038;2024-02-16T15:35:33;98519.13;;;-1.89;100.00
15066;BME280;7632;64.944;20.038;2024-02-16T15:38:01;98511.38;;;-1.98;100.00
15066;BME280;7632;64.944;20.038;2024-02-16T15:40:28;98519.88;;;-1.93;100.00
15066;BME280;7632;64.944;20.038;2024-02-16T15:43:01;98521.59;;;-1.92;100.00
15066;BME280;7632;64.944;20.038;2024-02-16T15:45:28;98518.03;;;-2.00;100.00
15066;BME280;7632;64.944;20.038;2024-02-16T15:47:55;98504.03;;;-1.89;100.00
15066;BME280;7632;64.944;20.038;2024-02-16T15:50:22;98481.97;;;-1.99;100.00
15066;BME280;7632;64.944;20.038;2024-02-16T15:52:49;98494.72;;;-1.93;100.00
15066;BME280;7632;64.944;20.038;2024-02-16T15:55:17;98480.88;;;-2.10;100.00
15066;BME280;7632;64.944;20.038;2024-02-16T15:57:44;98494.22;;;-2.13;100.00
15066;BME280;7632;64.944;20.038;2024-02-16T19:24:15;98286.00;;;-2.65;100.00
15066;BME280;7632;64.944;20.038;2024-02-16T19:26:42;98269.88;;;-2.73;100.00
15066;BME280;7632;64.944;20.038;2024-02-16T19:29:09;98263.13;;;-2.75;100.00
15066;BME280;7632;64.944;20.038;2024-02-16T19:31:35;98275.81;;;-2.69;100.00
15066;BME280;7632;64.944;20.038;2024-02-16T19:34:02;98275.81;;;-2.69;100.00
15066;BME280;7632;64.944;20.038;2024-02-16T19:36:29;98269.84;;;-2.76;100.00
15066;BME280;7632;64.944;20.038;2024-02-16T19:38:56;98273.22;;;-2.74;100.00
15066;BME280;7632;64.944;20.038;2024-02-16T19:41:25;98276.63;;;-2.72;100.00
15066;BME280;7632;64.944;20.038;2024-02-16T19:43:51;98266.44;;;-2.78;100.00
15066;BME280;7632;64.944;20.038;2024-02-16T19:46:18;98269.09;;;-2.72;100.00
15066;BME280;7632;64.944;20.038;2024-02-16T19:48:45;98271.50;;;-2.75;100.00
15066;BME280;7632;64.944;20.038;2024-02-16T19:51:12;98268.97;;;-2.76;100.00
15066;BME280;7632;64.944;20.038;2024-02-16T19:53:39;98272.28;;;-2.77;100.00
15066;BME280;7632;64.944;20.038;2024-02-16T19:56:06;98266.50;;;-2.75;100.00
15066;BME280;7632;64.944;20.038;2024-02-16T19:58:34;98264.88;;;-2.71;100.00
15066;BME280;7632;64.944;20.038;2024-02-16T20:01:01;98266.59;;;-2.72;100.00
15066;BME280;7632;64.944;20.038;2024-02-16T20:03:28;98262.31;;;-2.74;100.00
15066;BME280;7632;64.944;20.038;2024-02-16T20:05:54;98271.59;;;-2.72;100.00
15066;BME280;7632;64.944;20.038;2024-02-16T20:08:22;98264.81;;;-2.76;100.00
15066;BME280;7632;64.944;20.038;2024-02-16T20:10:48;98268.34;;;-2.68;100.00
15066;BME280;7632;64.944;20.038;2024-02-16T20:13:16;98274.13;;;-2.72;100.00
15066;BME280;7632;64.944;20.038;2024-02-16T20:15:45;98270.88;;;-2.66;100.00
15066;BME280;7632;64.944;20.038;2024-02-16T20:18:11;98264.09;;;-2.70;100.00
15066;BME280;7632;64.944;20.038;2024-02-16T20:20:43;98267.50;;;-2.68;100.00
15066;BME280;7632;64.944;20.038;2024-02-16T20:23:10;98258.81;;;-2.81;100.00
15066;BME280;7632;64.944;20.038;2024-02-16T20:25:36;98263.19;;;-2.74;100.00
15066;BME280;7632;64.944;20.038;2024-02-16T20:28:04;98259.88;;;-2.71;100.00
15066;BME280;7632;64.944;20.038;2024-02-16T20:30:31;98257.41;;;-2.70;100.00
15066;BME280;7632;64.944;20.038;2024-02-16T20:33:02;98253.16;;;-2.72;100.00
15066;BME280;7632;64.944;20.038;2024-02-16T20:35:30;98261.59;;;-2.69;100.00
15066;BME280;7632;64.944;20.038;2024-02-16T20:37:57;98254.81;;;-2.73;100.00
15066;BME280;7632;64.944;20.038;2024-02-16T20:40:24;98258.16;;;-2.74;100.00
15066;BME280;7632;64.944;20.038;2024-02-16T20:42:52;98257.94;;;-2.83;100.00
15066;BME280;7632;64.944;20.038;2024-02-16T20:45:19;98259.69;;;-2.79;100.00
15066;BME280;7632;64.944;20.038;2024-02-16T20:47:46;98251.13;;;-2.87;100.00
15066;BME280;7632;64.944;20.038;2024-02-16T20:50:14;98259.63;;;-2.82;100.00
15066;BME280;7632;64.944;20.038;2024-02-16T20:52:42;98256.16;;;-2.87;100.00
15066;BME280;7632;64.944;20.038;2024-02-16T20:55:09;98263.53;;;-2.93;100.00
15066;BME280;7632;64.944;20.038;2024-02-16T20:57:36;98253.47;;;-2.94;100.00
15066;BME280;7632;64.944;20.038;2024-02-16T21:00:03;98252.41;;;-3.04;100.00
15066;BME280;7632;64.944;20.038;2024-02-16T21:02:33;98253.34;;;-2.99;100.00
15066;BME280;7632;64.944;20.038;2024-02-16T21:05:00;98261.75;;;-2.97;100.00
15066;BME280;7632;64.944;20.038;2024-02-16T21:07:28;98260.00;;;-3.01;100.00
15066;BME280;7632;64.944;20.038;2024-02-16T21:09:55;98265.69;;;-3.08;100.00
15066;BME280;7632;64.944;20.038;2024-02-16T21:12:22;98260.44;;;-3.17;100.00
15066;BME280;7632;64.944;20.038;2024-02-16T21:14:49;98252.84;;;-3.20;100.00
15066;BME280;7632;64.944;20.038;2024-02-16T21:17:16;98251.25;;;-3.16;100.00
15066;BME280;7632;64.944;20.038;2024-02-16T21:19:43;98253.63;;;-3.21;100.00
15066;BME280;7632;64.944;20.038;2024-02-16T21:22:12;98259.31;;;-3.28;100.00
15066;BME280;7632;64.944;20.038;2024-02-16T21:24:40;98251.78;;;-3.28;100.00
15066;BME280;7632;64.944;20.038;2024-02-16T21:27:07;98255.25;;;-3.23;100.00
15066;BME280;7632;64.944;20.038;2024-02-16T21:29:35;98256.97;;;-3.22;100.00
15066;BME280;7632;64.944;20.038;2024-02-16T21:32:03;98257.59;;;-3.29;100.00
15066;BME280;7632;64.944;20.038;2024-02-16T21:34:30;98256.72;;;-3.31;100.00
15066;BME280;7632;64.944;20.038;2024-02-16T21:36:56;98256.63;;;-3.35;100.00
15066;BME280;7632;64.944;20.038;2024-02-16T21:39:24;98264.97;;;-3.35;100.00
15066;BME280;7632;64.944;20.038;2024-02-16T21:41:52;98262.47;;;-3.35;100.00
15066;BME280;7632;64.944;20.038;2024-02-16T21:44:19;98254.94;;;-3.35;100.00
15066;BME280;7632;64.944;20.038;2024-02-16T21:46:46;98235.34;;;-3.50;100.00
15066;BME280;7632;64.944;20.038;2024-02-16T21:49:13;98259.91;;;-3.38;100.00
15066;BME280;7632;64.944;20.038;2024-02-16T21:51:40;98256.56;;;-3.37;100.00
15066;BME280;7632;64.944;20.038;2024-02-16T21:54:08;98258.13;;;-3.42;100.00
15066;BME280;7632;64.944;20.038;2024-02-16T21:56:35;98255.56;;;-3.43;100.00
15066;BME280;7632;64.944;20.038;2024-02-16T21:59:03;98253.91;;;-3.43;100.00
15066;BME280;7632;64.944;20.038;2024-02-16T22:01:30;98251.38;;;-3.43;100.00
15066;BME280;7632;64.944;20.038;2024-02-16T22:03:57;98260.38;;;-3.51;100.00
15066;BME280;7632;64.944;20.038;2024-02-16T22:06:24;98263.00;;;-3.47;100.00
15066;BME280;7632;64.944;20.038;2024-02-16T22:08:53;98264.59;;;-3.50;100.00
15066;BME280;7632;64.944;20.038;2024-02-16T22:11:20;98269.84;;;-3.41;100.00
15066;BME280;7632;64.944;20.038;2024-02-16T22:13:48;98261.34;;;-3.46;100.00
15066;BME280;7632;64.944;20.038;2024-02-16T22:16:17;98252.34;;;-3.39;100.00
15066;BME280;7632;64.944;20.038;2024-02-16T22:18:44;98260.47;;;-3.48;100.00
15066;BME280;7632;64.944;20.038;2024-02-16T22:21:13;98259.47;;;-3.53;100.00
15066;BME280;7632;64.944;20.038;2024-02-16T22:23:40;98264.44;;;-3.56;100.00
15066;BME280;7632;64.944;20.038;2024-02-16T22:26:08;98260.88;;;-3.64;100.00
15066;BME280;7632;64.944;20.038;2024-02-16T22:28:35;98251.00;;;-3.58;100.00
15066;BME280;7632;64.944;20.038;2024-02-16T22:31:02;98258.56;;;-3.57;100.00
15066;BME280;7632;64.944;20.038;2024-02-16T22:33:30;98261.59;;;-3.68;100.00
15066;BME280;7632;64.944;20.038;2024-02-16T22:35:59;98267.41;;;-3.69;100.00
15066;BME280;7632;64.944;20.038;2024-02-16T22:38:26;98260.78;;;-3.67;100.00
15066;BME280;7632;64.944;20.038;2024-02-16T22:40:54;98257.69;;;-3.57;100.00
15066;BME280;7632;64.944;20.038;2024-02-16T22:43:21;98249.84;;;-3.69;100.00
15066;BME280;7632;64.944;20.038;2024-02-16T22:45:49;98239.72;;;-3.74;100.00
15066;BME280;7632;64.944;20.038;2024-02-16T22:48:16;98257.47;;;-3.66;100.00
15066;BME280;7632;64.944;20.038;2024-02-16T22:50:44;98254.13;;;-3.65;100.00
15066;BME280;7632;64.944;20.038;2024-02-16T22:53:12;98251.53;;;-3.70;100.00
15066;BME280;7632;64.944;20.038;2024-02-16T22:55:39;98256.44;;;-3.73;100.00
15066;BME280;7632;64.944;20.038;2024-02-16T22:58:06;98248.78;;;-3.77;100.00
15066;BME280;7632;64.944;20.038;2024-02-16T23:00:33;98243.88;;;-3.74;100.00
15066;BME280;7632;64.944;20.038;2024-02-16T23:03:05;98243.59;;;-3.83;100.00
15066;BME280;7632;64.944;20.038;2024-02-16T23:05:32;98232.22;;;-3.72;100.00
15066;BME280;7632;64.944;20.038;2024-02-16T23:08:01;98224.41;;;-3.83;100.00
15066;BME280;7632;64.944;20.038;2024-02-16T23:10:28;98228.72;;;-3.77;100.00
15066;BME280;7632;64.944;20.038;2024-02-16T23:12:59;98216.16;;;-3.79;100.00
15066;BME280;7632;64.944;20.038;2024-02-16T23:15:25;98227.78;;;-3.82;100.00
15066;BME280;7632;64.944;20.038;2024-02-16T23:17:52;98218.44;;;-3.88;100.00
15066;BME280;7632;64.944;20.038;2024-02-16T23:20:19;98224.34;;;-3.86;100.00
15066;BME280;7632;64.944;20.038;2024-02-16T23:23:03;98237.63;;;-3.88;100.00
15066;BME280;7632;64.944;20.038;2024-02-16T23:25:32;98240.22;;;-3.85;100.00
15066;BME280;7632;64.944;20.038;2024-02-16T23:28:01;98245.84;;;-3.94;100.00
